Time,TemperatureF,DewpointF,PressureIn,WindDirection,WindDirectionDegrees,WindSpeedMPH,WindSpeedGustMPH,Humidity,HourlyPrecipIn,Conditions,Clouds,dailyrainin,SoftwareType,DateUTC
2013-03-19 00:00:00,16.9,12.4,29.56,WSW,248,2.8,8.6,82,0.00,,SKC,0.00,VWS V14.01,2013-03-19 05:00:00,
2013-03-19 00:20:00,16.2,11.6,29.56,West,270,3.9,11.4,82,0.00,,SKC,0.00,VWS V14.01,2013-03-19 05:20:00,
2013-03-19 00:40:00,15.3,10.8,29.56,South,180,4.6,11.0,82,0.00,,SKC,0.00,VWS V14.01,2013-03-19 05:40:00,
2013-03-19 01:00:00,14.5,9.8,29.56,WSW,248,4.4,11.4,81,0.00,,SKC,0.00,VWS V14.01,2013-03-19 06:00:00,
2013-03-19 01:20:00,13.8,9.1,29.56,SSW,202,2.3,11.0,81,0.00,,SKC,0.00,VWS V14.01,2013-03-19 06:20:00,
2013-03-19 01:40:00,13.5,8.7,29.59,WNW,292,3.1,15.3,81,0.00,,SKC,0.00,VWS V14.01,2013-03-19 06:40:00,
2013-03-19 02:00:00,12.9,8.2,29.56,WNW,292,4.1,9.8,81,0.00,,SKC,0.00,VWS V14.01,2013-03-19 07:00:00,
2013-03-19 02:20:00,12.2,7.5,29.59,SW,225,3.9,11.4,81,0.00,,SKC,0.00,VWS V14.01,2013-03-19 07:20:00,
2013-03-19 02:40:00,11.8,7.1,29.59,WSW,248,1.5,11.0,81,0.00,,SKC,0.00,VWS V14.01,2013-03-19 07:40:00,
2013-03-19 03:00:00,11.7,7.0,29.59,WNW,292,2.8,12.5,81,0.00,,SKC,0.00,VWS V14.01,2013-03-19 08:00:00,
2013-03-19 03:20:00,11.3,6.6,29.59,NNW,338,3.3,11.0,81,0.00,,SKC,0.00,VWS V14.01,2013-03-19 08:20:00,
2013-03-19 03:40:00,11.1,6.4,29.59,South,180,4.6,11.0,81,0.00,,SKC,0.00,VWS V14.01,2013-03-19 08:40:00,
2013-03-19 04:00:00,10.9,6.3,29.59,SSW,202,3.3,10.2,81,0.00,,SKC,0.00,VWS V14.01,2013-03-19 09:00:00,
2013-03-19 04:20:00,10.8,6.1,29.62,WNW,292,5.4,8.2,81,0.00,,SKC,0.00,VWS V14.01,2013-03-19 09:20:00,
2013-03-19 04:40:00,10.4,5.7,29.62,WNW,292,3.1,8.2,81,0.00,,SKC,0.00,VWS V14.01,2013-03-19 09:40:00,
2013-03-19 05:00:00,10.2,5.6,29.62,SSW,202,3.6,11.4,81,0.00,,SKC,0.00,VWS V14.01,2013-03-19 10:00:00,
2013-03-19 05:20:00,9.9,5.2,29.62,SW,225,3.9,9.8,81,0.00,,SKC,0.00,VWS V14.01,2013-03-19 10:20:00,
2013-03-19 05:40:00,9.7,5.0,29.62,WNW,292,3.6,9.4,81,0.00,,SKC,0.00,VWS V14.01,2013-03-19 10:40:00,
2013-03-19 06:00:00,9.3,4.7,29.65,SW,225,3.3,9.4,81,0.00,,SKC,0.00,VWS V14.01,2013-03-19 11:00:00,
2013-03-19 06:20:00,9.1,4.5,29.65,WNW,292,4.1,7.0,81,0.00,,SKC,0.00,VWS V14.01,2013-03-19 11:20:00,
2013-03-19 06:40:00,9.0,4.3,29.65,WSW,248,6.4,10.2,81,0.00,,SKC,0.00,VWS V14.01,2013-03-19 11:40:00,
2013-03-19 07:00:00,9.0,4.3,29.68,WSW,248,2.8,11.0,81,0.00,,SKC,0.00,VWS V14.01,2013-03-19 12:00:00,
2013-03-19 07:20:00,8.8,4.2,29.71,WSW,248,2.3,8.2,81,0.00,,SKC,0.00,VWS V14.01,2013-03-19 12:20:00,
2013-03-19 07:40:00,8.8,4.2,29.71,WNW,292,3.3,8.6,81,0.00,,SKC,0.00,VWS V14.01,2013-03-19 12:40:00,
2013-03-19 08:00:00,9.1,4.5,29.71,WSW,248,3.1,7.0,81,0.00,,SKC,0.00,VWS V14.01,2013-03-19 13:00:00,
2013-03-19 08:20:00,9.5,4.9,29.71,SSW,202,4.9,12.5,81,0.00,,SKC,0.00,VWS V14.01,2013-03-19 13:20:00,
2013-03-19 08:40:00,10.4,5.7,29.71,WNW,292,4.4,10.6,81,0.00,,SKC,0.00,VWS V14.01,2013-03-19 13:40:00,
2013-03-19 09:00:00,11.3,6.6,29.74,WNW,292,2.3,17.6,81,0.00,,SKC,0.00,VWS V14.01,2013-03-19 14:00:00,
2013-03-19 09:20:00,12.9,8.2,29.74,WNW,292,2.8,17.2,81,0.00,,SKC,0.00,VWS V14.01,2013-03-19 14:20:00,
2013-03-19 09:40:00,13.6,6.0,29.76,NNW,338,3.9,11.4,71,0.00,,SKC,0.00,VWS V14.01,2013-03-19 14:40:00,
2013-03-19 10:00:00,16.2,5.4,29.76,WNW,292,4.4,15.3,62,0.00,,SKC,0.00,VWS V14.01,2013-03-19 15:00:00,
2013-03-19 10:20:00,15.8,4.4,29.76,SW,225,6.7,11.4,60,0.00,,SKC,0.00,VWS V14.01,2013-03-19 15:20:00,
2013-03-19 10:40:00,18.5,5.4,29.76,SSW,202,4.9,11.0,56,0.00,,SKC,0.00,VWS V14.01,2013-03-19 15:40:00,
2013-03-19 11:00:00,20.1,5.3,29.79,SSW,202,6.2,13.3,52,0.00,,SKC,0.00,VWS V14.01,2013-03-19 16:00:00,
2013-03-19 11:20:00,20.8,4.7,29.79,NNW,338,3.9,21.1,49,0.00,,SKC,0.00,VWS V14.01,2013-03-19 16:20:00,
2013-03-19 11:40:00,22.3,6.0,29.79,WSW,248,3.1,21.1,49,0.00,,SKC,0.00,VWS V14.01,2013-03-19 16:40:00,
2013-03-19 12:00:00,23.2,5.5,29.79,NW,315,3.9,23.1,46,0.00,,SKC,0.00,VWS V14.01,2013-03-19 17:00:00,
2013-03-19 12:20:00,24.1,5.8,29.79,NNE,22,5.7,16.4,45,0.00,,SKC,0.00,VWS V14.01,2013-03-19 17:20:00,
2013-03-19 12:40:00,24.4,5.7,29.79,WSW,248,6.2,16.1,44,0.00,,SKC,0.00,VWS V14.01,2013-03-19 17:40:00,
2013-03-19 13:00:00,27.0,8.0,29.79,WSW,248,4.9,15.3,44,0.00,,SKC,0.00,VWS V14.01,2013-03-19 18:00:00,
2013-03-19 13:20:00,26.6,7.1,29.82,SW,225,3.3,16.8,43,0.00,,SKC,0.00,VWS V14.01,2013-03-19 18:20:00,
2013-03-19 13:40:00,27.1,7.1,29.82,NNW,338,3.3,17.6,42,0.00,,SKC,0.00,VWS V14.01,2013-03-19 18:40:00,
2013-03-19 14:20:00,27.0,6.4,29.82,SSW,202,3.1,22.3,41,0.00,,SKC,0.00,VWS V14.01,2013-03-19 19:20:00,
2013-03-19 14:40:00,27.9,7.2,29.82,NW,315,3.9,17.6,41,0.00,,SKC,0.00,VWS V14.01,2013-03-19 19:40:00,
2013-03-19 15:00:00,28.0,7.4,29.82,NW,315,7.5,16.8,41,0.00,,SKC,0.00,VWS V14.01,2013-03-19 20:00:00,
2013-03-19 15:20:00,27.7,6.0,29.82,SSW,202,6.4,18.8,39,0.00,,SKC,0.00,VWS V14.01,2013-03-19 20:20:00,
2013-03-19 15:40:00,27.7,6.5,29.82,WNW,292,3.1,18.4,40,0.00,,SKC,0.00,VWS V14.01,2013-03-19 20:40:00,
2013-03-19 16:00:00,27.9,6.7,29.82,NNW,338,9.8,15.3,40,0.00,,SKC,0.00,VWS V14.01,2013-03-19 21:00:00,
2013-03-19 16:20:00,27.0,4.8,29.85,WNW,292,6.4,27.8,38,0.00,,SKC,0.00,VWS V14.01,2013-03-19 21:20:00,
2013-03-19 16:40:00,26.4,4.3,29.85,WNW,292,6.2,19.2,38,0.00,,SKC,0.00,VWS V14.01,2013-03-19 21:40:00,
2013-03-19 17:00:00,25.9,3.8,29.85,SW,225,7.2,17.6,38,0.00,,SKC,0.00,VWS V14.01,2013-03-19 22:00:00,
2013-03-19 17:20:00,25.5,3.5,29.85,NNW,338,7.2,23.1,38,0.00,,SKC,0.00,VWS V14.01,2013-03-19 22:20:00,
2013-03-19 17:40:00,24.8,2.8,29.85,WSW,248,3.6,19.6,38,0.00,,SKC,0.00,VWS V14.01,2013-03-19 22:40:00,
2013-03-19 18:00:00,23.5,1.1,29.85,NNW,338,7.7,19.2,37,0.00,,SKC,0.00,VWS V14.01,2013-03-19 23:00:00,
2013-03-19 18:20:00,23.0,1.2,29.85,WNW,292,5.4,20.0,38,0.00,,SKC,0.00,VWS V14.01,2013-03-19 23:20:00,
2013-03-19 18:40:00,22.5,0.7,29.88,SSW,202,1.5,12.9,38,0.00,,SKC,0.00,VWS V14.01,2013-03-19 23:40:00,
2013-03-19 19:00:00,21.6,1.0,29.88,ESE,112,4.6,14.1,40,0.00,,SKC,0.00,VWS V14.01,2013-03-20 00:00:00,
2013-03-19 19:20:00,20.5,-0.5,29.88,WNW,292,3.9,17.2,39,0.00,,SKC,0.00,VWS V14.01,2013-03-20 00:20:00,
2013-03-19 19:40:00,19.8,-1.2,29.88,WNW,292,4.9,23.5,39,0.00,,SKC,0.00,VWS V14.01,2013-03-20 00:40:00,
2013-03-19 20:00:00,18.9,-1.5,29.91,NNW,338,2.6,17.6,40,0.00,,SKC,0.00,VWS V14.01,2013-03-20 01:00:00,
2013-03-19 20:20:00,18.1,-1.6,29.91,WNW,292,3.6,13.3,41,0.00,,SKC,0.00,VWS V14.01,2013-03-20 01:20:00,
2013-03-19 20:40:00,17.6,-1.6,29.91,WNW,292,3.1,12.9,42,0.00,,SKC,0.00,VWS V14.01,2013-03-20 01:40:00,
2013-03-19 21:00:00,16.9,-1.7,29.91,SW,225,2.3,19.6,43,0.00,,SKC,0.00,VWS V14.01,2013-03-20 02:00:00,
2013-03-19 21:20:00,16.2,-2.4,29.91,West,270,3.1,14.9,43,0.00,,SKC,0.00,VWS V14.01,2013-03-20 02:20:00,
2013-03-19 21:40:00,15.1,-2.9,29.94,WNW,292,2.8,6.3,44,0.00,,SKC,0.00,VWS V14.01,2013-03-20 02:40:00,
2013-03-19 22:00:00,14.5,-3.4,29.94,WNW,292,4.6,19.2,44,0.00,,SKC,0.00,VWS V14.01,2013-03-20 03:00:00,
2013-03-19 22:20:00,14.0,-3.4,29.94,South,180,4.4,15.3,45,0.00,,SKC,0.00,VWS V14.01,2013-03-20 03:20:00,
2013-03-19 22:40:00,13.3,-4.1,29.94,WSW,248,1.8,17.6,45,0.00,,SKC,0.00,VWS V14.01,2013-03-20 03:40:00,
2013-03-19 23:00:00,12.6,-4.7,29.94,SW,225,1.8,11.7,45,0.00,,SKC,0.00,VWS V14.01,2013-03-20 04:00:00,
2013-03-19 23:20:00,11.7,-5.6,29.94,North,0,8.7,14.1,45,0.00,,SKC,0.00,VWS V14.01,2013-03-20 04:20:00,
2013-03-19 23:40:00,10.9,-6.2,29.94,SW,225,4.4,13.3,45,0.00,,SKC,0.00,VWS V14.01,2013-03-20 04:40:00,